sensor_id;sensor_type;location;lat;lon;timestamp;temperature;humidity
15386;DHT22;7791;47.246;9.648;2023-02-12T00:01:42;-1.00;99.90
15386;DHT22;7791;47.246;9.648;2023-02-12T00:04:10;-0.90;99.90
15386;DHT22;7791;47.246;9.648;2023-02-12T00:06:39;-1.00;99.90
15386;DHT22;7791;47.246;9.648;2023-02-12T00:09:06;-1.00;99.90
15386;DHT22;7791;47.246;9.648;2023-02-12T00:11:32;-1.10;99.90
15386;DHT22;7791;47.246;9.648;2023-02-12T00:14:01;-1.20;99.90
15386;DHT22;7791;47.246;9.648;2023-02-12T00:16:28;-1.30;99.90
15386;DHT22;7791;47.246;9.648;2023-02-12T00:19:03;-1.30;99.90
15386;DHT22;7791;47.246;9.648;2023-02-12T00:21:29;-1.40;99.90
15386;DHT22;7791;47.246;9.648;2023-02-12T00:23:57;-1.50;99.90
15386;DHT22;7791;47.246;9.648;2023-02-12T00:26:24;-1.60;99.90
15386;DHT22;7791;47.246;9.648;2023-02-12T00:28:50;-1.70;99.90
15386;DHT22;7791;47.246;9.648;2023-02-12T00:31:18;-1.80;99.90
15386;DHT22;7791;47.246;9.648;2023-02-12T00:33:48;-1.80;99.90
15386;DHT22;7791;47.246;9.648;2023-02-12T00:36:18;-1.90;99.90
15386;DHT22;7791;47.246;9.648;2023-02-12T00:38:46;-2.00;99.90
15386;DHT22;7791;47.246;9.648;2023-02-12T00:41:15;-2.10;99.90
15386;DHT22;7791;47.246;9.648;2023-02-12T00:43:41;-2.20;99.90
15386;DHT22;7791;47.246;9.648;2023-02-12T00:46:08;-2.30;99.90
15386;DHT22;7791;47.246;9.648;2023-02-12T00:48:36;-2.40;99.90
15386;DHT22;7791;47.246;9.648;2023-02-12T00:51:04;-2.50;99.90
15386;DHT22;7791;47.246;9.648;2023-02-12T00:53:30;-2.50;99.90
15386;DHT22;7791;47.246;9.648;2023-02-12T00:55:57;-2.50;99.90
15386;DHT22;7791;47.246;9.648;2023-02-12T00:58:29;-2.50;99.90
15386;DHT22;7791;47.246;9.648;2023-02-12T01:00:56;-2.40;99.90
15386;DHT22;7791;47.246;9.648;2023-02-12T01:03:22;-2.40;99.90
15386;DHT22;7791;47.246;9.648;2023-02-12T01:05:49;-2.30;99.90
15386;DHT22;7791;47.246;9.648;2023-02-12T01:08:16;-2.30;99.90
15386;DHT22;7791;47.246;9.648;2023-02-12T01:10:43;-2.20;99.90
15386;DHT22;7791;47.246;9.648;2023-02-12T01:13:11;-2.20;99.90
15386;DHT22;7791;47.246;9.648;2023-02-12T01:15:39;-2.30;99.90
15386;DHT22;7791;47.246;9.648;2023-02-12T01:18:05;-2.40;99.90
15386;DHT22;7791;47.246;9.648;2023-02-12T01:20:39;-2.40;99.90
15386;DHT22;7791;47.246;9.648;2023-02-12T01:23:05;-2.50;99.90
15386;DHT22;7791;47.246;9.648;2023-02-12T01:28:59;-2.50;99.90
15386;DHT22;7791;47.246;9.648;2023-02-12T01:31:34;-2.60;99.90
15386;DHT22;7791;47.246;9.648;2023-02-12T01:34:03;-2.60;99.90
15386;DHT22;7791;47.246;9.648;2023-02-12T01:36:38;-2.70;99.90
15386;DHT22;7791;47.246;9.648;2023-02-12T01:39:19;-2.70;99.90
15386;DHT22;7791;47.246;9.648;2023-02-12T01:41:45;-2.70;99.90
15386;DHT22;7791;47.246;9.648;2023-02-12T01:44:15;-2.70;99.90
15386;DHT22;7791;47.246;9.648;2023-02-12T01:46:45;-2.70;99.90
15386;DHT22;7791;47.246;9.648;2023-02-12T01:49:15;-2.60;99.90
15386;DHT22;7791;47.246;9.648;2023-02-12T01:51:43;-2.60;99.90
15386;DHT22;7791;47.246;9.648;2023-02-12T01:54:13;-2.50;99.90
15386;DHT22;7791;47.246;9.648;2023-02-12T01:56:46;-2.50;99.90
15386;DHT22;7791;47.246;9.648;2023-02-12T01:59:14;-2.50;99.90
15386;DHT22;7791;47.246;9.648;2023-02-12T02:01:46;-2.60;99.90
15386;DHT22;7791;47.246;9.648;2023-02-12T02:04:16;-2.60;99.90
15386;DHT22;7791;47.246;9.648;2023-02-12T02:06:49;-2.60;99.90
15386;DHT22;7791;47.246;9.648;2023-02-12T02:09:18;-2.70;99.90
15386;DHT22;7791;47.246;9.648;2023-02-12T02:11:47;-2.80;99.90
15386;DHT22;7791;47.246;9.648;2023-02-12T02:14:16;-2.80;99.90
15386;DHT22;7791;47.246;9.648;2023-02-12T02:17:02;-2.70;99.90
15386;DHT22;7791;47.246;9.648;2023-02-12T02:19:50;-2.70;99.90
15386;DHT22;7791;47.246;9.648;2023-02-12T02:22:34;-2.70;99.90
15386;DHT22;7791;47.246;9.648;2023-02-12T02:28:26;-2.70;99.90
15386;DHT22;7791;47.246;9.648;2023-02-12T02:31:19;-2.80;99.90
15386;DHT22;7791;47.246;9.648;2023-02-12T02:33:52;-2.90;99.90
15386;DHT22;7791;47.246;9.648;2023-02-12T02:36:26;-2.80;99.90
15386;DHT22;7791;47.246;9.648;2023-02-12T02:42:03;-2.80;99.90
15386;DHT22;7791;47.246;9.648;2023-02-12T02:44:36;-2.90;99.90
15386;DHT22;7791;47.246;9.648;2023-02-12T02:47:11;-2.80;99.90
15386;DHT22;7791;47.246;9.648;2023-02-12T02:49:44;-2.80;99.90
15386;DHT22;7791;47.246;9.648;2023-02-12T02:52:19;-2.80;99.90
15386;DHT22;7791;47.246;9.648;2023-02-12T02:54:48;-2.80;99.90
15386;DHT22;7791;47.246;9.648;2023-02-12T02:57:18;-2.80;99.90
15386;DHT22;7791;47.246;9.648;2023-02-12T02:59:53;-2.80;99.90
15386;DHT22;7791;47.246;9.648;2023-02-12T03:02:28;-2.90;99.90
15386;DHT22;7791;47.246;9.648;2023-02-12T03:05:01;-3.00;99.90
15386;DHT22;7791;47.246;9.648;2023-02-12T03:07:32;-3.20;99.90
15386;DHT22;7791;47.246;9.648;2023-02-12T03:10:09;-3.10;99.90
15386;DHT22;7791;47.246;9.648;2023-02-12T03:12:50;-3.10;99.90
15386;DHT22;7791;47.246;9.648;2023-02-12T03:15:26;-3.00;99.90
15386;DHT22;7791;47.246;9.648;2023-02-12T03:18:02;-2.90;99.90
15386;DHT22;7791;47.246;9.648;2023-02-12T03:20:34;-2.90;99.90
15386;DHT22;7791;47.246;9.648;2023-02-12T03:23:22;-2.90;99.90
15386;DHT22;7791;47.246;9.648;2023-02-12T03:25:56;-2.80;99.90
15386;DHT22;7791;47.246;9.648;2023-02-12T03:28:26;-2.90;99.90
15386;DHT22;7791;47.246;9.648;2023-02-12T03:31:06;-3.00;99.90
15386;DHT22;7791;47.246;9.648;2023-02-12T03:33:43;-3.00;99.90
15386;DHT22;7791;47.246;9.648;2023-02-12T03:36:21;-3.00;99.90
15386;DHT22;7791;47.246;9.648;2023-02-12T03:38:52;-2.90;99.90
15386;DHT22;7791;47.246;9.648;2023-02-12T03:41:23;-2.90;99.90
15386;DHT22;7791;47.246;9.648;2023-02-12T03:43:53;-3.10;99.90
15386;DHT22;7791;47.246;9.648;2023-02-12T03:46:25;-3.10;99.90
15386;DHT22;7791;47.246;9.648;2023-02-12T03:49:09;-3.20;99.90
15386;DHT22;7791;47.246;9.648;2023-02-12T03:51:40;-3.30;99.90
15386;DHT22;7791;47.246;9.648;2023-02-12T03:54:11;-3.30;99.90
15386;DHT22;7791;47.246;9.648;2023-02-12T03:56:44;-3.30;99.90
15386;DHT22;7791;47.246;9.648;2023-02-12T03:59:11;-3.30;99.90
15386;DHT22;7791;47.246;9.648;2023-02-12T04:01:37;-3.40;99.90
15386;DHT22;7791;47.246;9.648;2023-02-12T04:04:07;-3.40;99.90
15386;DHT22;7791;47.246;9.648;2023-02-12T04:06:35;-3.40;99.90
15386;DHT22;7791;47.246;9.648;2023-02-12T04:09:03;-3.50;99.90
15386;DHT22;7791;47.246;9.648;2023-02-12T04:11:42;-3.50;99.90
15386;DHT22;7791;47.246;9.648;2023-02-12T04:14:19;-3.50;99.90
15386;DHT22;7791;47.246;9.648;2023-02-12T04:16:50;-3.60;99.90
15386;DHT22;7791;47.246;9.648;2023-02-12T04:19:32;-3.60;99.90
15386;DHT22;7791;47.246;9.648;2023-02-12T04:22:13;-3.60;99.90
15386;DHT22;7791;47.246;9.648;2023-02-12T04:24:48;-3.60;99.90
15386;DHT22;7791;47.246;9.648;2023-02-12T04:27:19;-3.60;99.90
15386;DHT22;7791;47.246;9.648;2023-02-12T04:29:52;-3.60;99.90
15386;DHT22;7791;47.246;9.648;2023-02-12T04:32:28;-3.60;99.90
15386;DHT22;7791;47.246;9.648;2023-02-12T04:35:03;-3.60;99.90
15386;DHT22;7791;47.246;9.648;2023-02-12T04:37:37;-3.60;99.90
15386;DHT22;7791;47.246;9.648;2023-02-12T04:40:10;-3.60;99.90
15386;DHT22;7791;47.246;9.648;2023-02-12T04:42:41;-3.60;99.90
15386;DHT22;7791;47.246;9.648;2023-02-12T04:45:10;-3.80;99.90
15386;DHT22;7791;47.246;9.648;2023-02-12T04:47:37;-3.80;99.90
15386;DHT22;7791;47.246;9.648;2023-02-12T04:50:10;-3.70;99.90
15386;DHT22;7791;47.246;9.648;2023-02-12T04:52:36;-3.50;99.90
15386;DHT22;7791;47.246;9.648;2023-02-12T04:55:05;-3.50;99.90
15386;DHT22;7791;47.246;9.648;2023-02-12T04:57:34;-3.60;99.90
15386;DHT22;7791;47.246;9.648;2023-02-12T05:00:02;-3.60;99.90
15386;DHT22;7791;47.246;9.648;2023-02-12T05:02:37;-3.60;99.90
15386;DHT22;7791;47.246;9.648;2023-02-12T05:05:07;-3.60;99.90
15386;DHT22;7791;47.246;9.648;2023-02-12T05:07:33;-3.70;99.90
15386;DHT22;7791;47.246;9.648;2023-02-12T05:09:59;-3.80;99.90
15386;DHT22;7791;47.246;9.648;2023-02-12T05:12:25;-3.90;99.90
15386;DHT22;7791;47.246;9.648;2023-02-12T05:14:51;-4.00;99.90
15386;DHT22;7791;47.246;9.648;2023-02-12T05:17:21;-4.10;99.90
15386;DHT22;7791;47.246;9.648;2023-02-12T05:19:51;-4.10;99.90
15386;DHT22;7791;47.246;9.648;2023-02-12T05:22:19;-4.10;99.90
15386;DHT22;7791;47.246;9.648;2023-02-12T05:24:47;-4.10;99.90
15386;DHT22;7791;47.246;9.648;2023-02-12T05:27:15;-4.00;99.90
15386;DHT22;7791;47.246;9.648;2023-02-12T05:29:45;-3.90;99.90
15386;DHT22;7791;47.246;9.648;2023-02-12T05:32:13;-3.80;99.90
15386;DHT22;7791;47.246;9.648;2023-02-12T05:34:39;-3.80;99.90
15386;DHT22;7791;47.246;9.648;2023-02-12T05:37:05;-3.80;99.90
15386;DHT22;7791;47.246;9.648;2023-02-12T05:39:33;-3.90;99.90
15386;DHT22;7791;47.246;9.648;2023-02-12T05:42:04;-4.00;99.90
15386;DHT22;7791;47.246;9.648;2023-02-12T05:44:31;-4.00;99.90
15386;DHT22;7791;47.246;9.648;2023-02-12T05:46:57;-4.00;99.90
15386;DHT22;7791;47.246;9.648;2023-02-12T05:49:25;-4.10;99.90
15386;DHT22;7791;47.246;9.648;2023-02-12T05:51:52;-4.10;99.90
15386;DHT22;7791;47.246;9.648;2023-02-12T05:54:18;-4.00;99.90
15386;DHT22;7791;47.246;9.648;2023-02-12T05:56:46;-4.00;99.90
15386;DHT22;7791;47.246;9.648;2023-02-12T05:59:17;-3.80;99.90
15386;DHT22;7791;47.246;9.648;2023-02-12T06:01:45;-3.80;99.90
15386;DHT22;7791;47.246;9.648;2023-02-12T06:04:14;-3.70;99.90
15386;DHT22;7791;47.246;9.648;2023-02-12T06:06:41;-3.70;99.90
15386;DHT22;7791;47.246;9.648;2023-02-12T06:09:08;-3.80;99.90
15386;DHT22;7791;47.246;9.648;2023-02-12T06:11:39;-3.80;99.90
15386;DHT22;7791;47.246;9.648;2023-02-12T06:14:14;-3.80;99.90
15386;DHT22;7791;47.246;9.648;2023-02-12T06:16:42;-3.80;99.90
15386;DHT22;7791;47.246;9.648;2023-02-12T06:19:09;-3.90;99.90
15386;DHT22;7791;47.246;9.648;2023-02-12T06:21:37;-3.90;99.90
15386;DHT22;7791;47.246;9.648;2023-02-12T06:24:05;-3.90;99.90
15386;DHT22;7791;47.246;9.648;2023-02-12T06:26:32;-3.90;99.90
15386;DHT22;7791;47.246;9.648;2023-02-12T06:29:01;-3.90;99.90
15386;DHT22;7791;47.246;9.648;2023-02-12T06:31:30;-3.90;99.90
15386;DHT22;7791;47.246;9.648;2023-02-12T06:33:58;-3.90;99.90
15386;DHT22;7791;47.246;9.648;2023-02-12T06:36:26;-3.90;99.90
15386;DHT22;7791;47.246;9.648;2023-02-12T06:38:52;-3.80;99.90
15386;DHT22;7791;47.246;9.648;2023-02-12T06:41:18;-3.90;99.90
15386;DHT22;7791;47.246;9.648;2023-02-12T06:43:44;-3.80;99.90
15386;DHT22;7791;47.246;9.648;2023-02-12T06:46:10;-3.80;99.90
15386;DHT22;7791;47.246;9.648;2023-02-12T06:48:43;-3.80;99.90
15386;DHT22;7791;47.246;9.648;2023-02-12T06:51:10;-3.80;99.90
15386;DHT22;7791;47.246;9.648;2023-02-12T06:53:37;-3.80;99.90
15386;DHT22;7791;47.246;9.648;2023-02-12T06:56:06;-3.80;99.90
15386;DHT22;7791;47.246;9.648;2023-02-12T06:58:32;-3.80;99.90
15386;DHT22;7791;47.246;9.648;2023-02-12T07:01:11;-3.70;99.90
15386;DHT22;7791;47.246;9.648;2023-02-12T07:03:48;-3.70;99.90
15386;DHT22;7791;47.246;9.648;2023-02-12T07:06:17;-3.60;99.90
15386;DHT22;7791;47.246;9.648;2023-02-12T07:08:45;-3.50;99.90
15386;DHT22;7791;47.246;9.648;2023-02-12T07:11:11;-3.50;99.90
15386;DHT22;7791;47.246;9.648;2023-02-12T07:16:46;-3.40;99.90
15386;DHT22;7791;47.246;9.648;2023-02-12T07:19:40;-3.40;99.90
15386;DHT22;7791;47.246;9.648;2023-02-12T07:22:06;-3.30;99.90
15386;DHT22;7791;47.246;9.648;2023-02-12T07:26:58;-3.20;99.90
15386;DHT22;7791;47.246;9.648;2023-02-12T07:29:46;-3.10;99.90
15386;DHT22;7791;47.246;9.648;2023-02-12T07:32:15;-3.10;99.90
15386;DHT22;7791;47.246;9.648;2023-02-12T07:34:48;-3.00;99.90
15386;DHT22;7791;47.246;9.648;2023-02-12T07:37:14;-2.90;99.90
15386;DHT22;7791;47.246;9.648;2023-02-12T07:39:42;-3.00;99.90
15386;DHT22;7791;47.246;9.648;2023-02-12T07:42:10;-2.80;99.90
15386;DHT22;7791;47.246;9.648;2023-02-12T07:44:42;-2.70;99.90
15386;DHT22;7791;47.246;9.648;2023-02-12T07:47:17;-2.60;99.90
15386;DHT22;7791;47.246;9.648;2023-02-12T07:49:47;-2.60;99.90
15386;DHT22;7791;47.246;9.648;2023-02-12T07:52:16;-2.50;99.90
15386;DHT22;7791;47.246;9.648;2023-02-12T07:54:46;-1.70;99.90
15386;DHT22;7791;47.246;9.648;2023-02-12T07:57:13;-0.60;99.90
15386;DHT22;7791;47.246;9.648;2023-02-12T07:59:39;0.30;99.90
15386;DHT22;7791;47.246;9.648;2023-02-12T08:02:06;1.40;99.90
15386;DHT22;7791;47.246;9.648;2023-02-12T08:04:41;2.80;99.90
15386;DHT22;7791;47.246;9.648;2023-02-12T08:49:39;13.20;99.90
15386;DHT22;7791;47.246;9.648;2023-02-12T08:52:40;13.70;99.90
15386;DHT22;7791;47.246;9.648;2023-02-12T09:57:33;18.10;78.90
15386;DHT22;7791;47.246;9.648;2023-02-12T10:29:41;18.10;74.80
15386;DHT22;7791;47.246;9.648;2023-02-12T10:32:46;18.30;73.70
15386;DHT22;7791;47.246;9.648;2023-02-12T10:38:16;19.00;73.40
15386;DHT22;7791;47.246;9.648;2023-02-12T10:40:52;18.20;72.10
15386;DHT22;7791;47.246;9.648;2023-02-12T10:43:27;17.00;77.30
15386;DHT22;7791;47.246;9.648;2023-02-12T10:46:19;17.60;77.00
15386;DHT22;7791;47.246;9.648;2023-02-12T10:52:01;16.10;75.90
15386;DHT22;7791;47.246;9.648;2023-02-12T10:54:38;15.10;78.30
15386;DHT22;7791;47.246;9.648;2023-02-12T10:57:22;14.20;81.30
15386;DHT22;7791;47.246;9.648;2023-02-12T11:00:21;13.10;84.00
15386;DHT22;7791;47.246;9.648;2023-02-12T11:03:15;12.60;86.40
15386;DHT22;7791;47.246;9.648;2023-02-12T11:05:52;12.00;88.50
15386;DHT22;7791;47.246;9.648;2023-02-12T11:08:35;11.40;90.00
15386;DHT22;7791;47.246;9.648;2023-02-12T11:11:07;11.10;90.70
15386;DHT22;7791;47.246;9.648;2023-02-12T11:13:35;10.40;91.50
15386;DHT22;7791;47.246;9.648;2023-02-12T11:16:05;9.90;92.10
15386;DHT22;7791;47.246;9.648;2023-02-12T11:18:33;9.80;93.20
15386;DHT22;7791;47.246;9.648;2023-02-12T11:21:12;9.50;93.40
15386;DHT22;7791;47.246;9.648;2023-02-12T11:23:39;9.60;93.40
15386;DHT22;7791;47.246;9.648;2023-02-12T11:26:23;9.60;93.40
15386;DHT22;7791;47.246;9.648;2023-02-12T11:28:55;9.70;93.40
15386;DHT22;7791;47.246;9.648;2023-02-12T11:31:23;9.90;93.20
15386;DHT22;7791;47.246;9.648;2023-02-12T11:34:09;9.80;93.20
15386;DHT22;7791;47.246;9.648;2023-02-12T11:36:45;10.00;93.60
15386;DHT22;7791;47.246;9.648;2023-02-12T11:39:20;10.40;92.60
15386;DHT22;7791;47.246;9.648;2023-02-12T11:41:50;10.30;93.40
15386;DHT22;7791;47.246;9.648;2023-02-12T11:44:20;10.20;93.00
15386;DHT22;7791;47.246;9.648;2023-02-12T11:46:48;10.40;92.70
15386;DHT22;7791;47.246;9.648;2023-02-12T11:49:20;10.50;92.90
15386;DHT22;7791;47.246;9.648;2023-02-12T11:51:49;10.70;92.20
15386;DHT22;7791;47.246;9.648;2023-02-12T11:54:19;11.00;91.50
15386;DHT22;7791;47.246;9.648;2023-02-12T11:56:49;10.70;90.80
15386;DHT22;7791;47.246;9.648;2023-02-12T11:59:33;10.80;91.80
15386;DHT22;7791;47.246;9.648;2023-02-12T12:02:13;11.10;91.20
15386;DHT22;7791;47.246;9.648;2023-02-12T12:04:43;11.30;90.90
15386;DHT22;7791;47.246;9.648;2023-02-12T12:07:18;11.40;87.70
15386;DHT22;7791;47.246;9.648;2023-02-12T12:10:06;11.40;89.20
15386;DHT22;7791;47.246;9.648;2023-02-12T12:12:40;10.80;90.90
15386;DHT22;7791;47.246;9.648;2023-02-12T12:15:16;10.80;90.40
15386;DHT22;7791;47.246;9.648;2023-02-12T12:17:46;10.60;90.80
15386;DHT22;7791;47.246;9.648;2023-02-12T12:20:20;10.30;91.20
15386;DHT22;7791;47.246;9.648;2023-02-12T12:22:52;10.50;91.00
15386;DHT22;7791;47.246;9.648;2023-02-12T12:25:24;10.40;91.40
15386;DHT22;7791;47.246;9.648;2023-02-12T12:28:04;10.50;92.80
15386;DHT22;7791;47.246;9.648;2023-02-12T12:33:39;10.60;90.90
15386;DHT22;7791;47.246;9.648;2023-02-12T12:39:26;10.50;91.40
15386;DHT22;7791;47.246;9.648;2023-02-12T12:45:17;10.40;90.10
15386;DHT22;7791;47.246;9.648;2023-02-12T12:47:55;10.80;90.80
15386;DHT22;7791;47.246;9.648;2023-02-12T12:50:42;10.80;87.80
15386;DHT22;7791;47.246;9.648;2023-02-12T12:53:24;10.80;88.40
15386;DHT22;7791;47.246;9.648;2023-02-12T12:56:21;10.70;88.30
15386;DHT22;7791;47.246;9.648;2023-02-12T12:59:09;10.90;89.10
15386;DHT22;7791;47.246;9.648;2023-02-12T13:01:57;10.80;88.90
15386;DHT22;7791;47.246;9.648;2023-02-12T13:05:00;10.70;89.50
15386;DHT22;7791;47.246;9.648;2023-02-12T13:07:45;10.50;90.30
15386;DHT22;7791;47.246;9.648;2023-02-12T13:10:25;10.60;91.70
15386;DHT22;7791;47.246;9.648;2023-02-12T13:13:08;11.30;90.60
15386;DHT22;7791;47.246;9.648;2023-02-12T13:15:50;11.20;88.30
15386;DHT22;7791;47.246;9.648;2023-02-12T13:18:29;11.10;90.00
15386;DHT22;7791;47.246;9.648;2023-02-12T13:21:05;11.30;88.90
15386;DHT22;7791;47.246;9.648;2023-02-12T14:06:14;12.20;88.70
15386;DHT22;7791;47.246;9.648;2023-02-12T14:08:43;12.20;88.50
15386;DHT22;7791;47.246;9.648;2023-02-12T14:11:10;12.00;89.60
15386;DHT22;7791;47.246;9.648;2023-02-12T14:13:48;12.00;88.10
15386;DHT22;7791;47.246;9.648;2023-02-12T14:16:35;12.10;88.10
15386;DHT22;7791;47.246;9.648;2023-02-12T14:19:38;11.90;89.60
15386;DHT22;7791;47.246;9.648;2023-02-12T14:22:13;11.70;90.10
15386;DHT22;7791;47.246;9.648;2023-02-12T14:25:00;11.80;90.00
15386;DHT22;7791;47.246;9.648;2023-02-12T14:27:40;11.90;90.30
15386;DHT22;7791;47.246;9.648;2023-02-12T14:30:26;12.30;89.20
15386;DHT22;7791;47.246;9.648;2023-02-12T14:36:16;11.90;89.40
15386;DHT22;7791;47.246;9.648;2023-02-12T14:38:57;11.90;89.80
15386;DHT22;7791;47.246;9.648;2023-02-12T14:41:26;11.70;90.60
15386;DHT22;7791;47.246;9.648;2023-02-12T14:47:00;11.60;91.20
15386;DHT22;7791;47.246;9.648;2023-02-12T14:49:29;11.40;91.00
15386;DHT22;7791;47.246;9.648;2023-02-12T14:52:03;11.60;91.10
15386;DHT22;7791;47.246;9.648;2023-02-12T14:54:34;11.60;91.50
15386;DHT22;7791;47.246;9.648;2023-02-12T14:57:05;11.80;91.50
15386;DHT22;7791;47.246;9.648;2023-02-12T14:59:35;11.70;91.20
15386;DHT22;7791;47.246;9.648;2023-02-12T15:02:05;11.50;91.70
15386;DHT22;7791;47.246;9.648;2023-02-12T15:04:35;11.40;91.50
15386;DHT22;7791;47.246;9.648;2023-02-12T15:07:06;11.40;91.60
15386;DHT22;7791;47.246;9.648;2023-02-12T15:09:37;11.30;91.70
15386;DHT22;7791;47.246;9.648;2023-02-12T15:12:08;11.30;92.50
15386;DHT22;7791;47.246;9.648;2023-02-12T15:14:39;11.40;92.30
15386;DHT22;7791;47.246;9.648;2023-02-12T15:17:09;11.50;93.80
15386;DHT22;7791;47.246;9.648;2023-02-12T15:19:47;11.50;93.70
15386;DHT22;7791;47.246;9.648;2023-02-12T15:22:22;11.60;94.40
15386;DHT22;7791;47.246;9.648;2023-02-12T15:24:52;11.60;93.90
15386;DHT22;7791;47.246;9.648;2023-02-12T15:27:21;11.60;94.10
15386;DHT22;7791;47.246;9.648;2023-02-12T15:29:49;11.60;93.70
15386;DHT22;7791;47.246;9.648;2023-02-12T15:32:21;11.40;93.70
15386;DHT22;7791;47.246;9.648;2023-02-12T15:34:50;11.10;94.10
15386;DHT22;7791;47.246;9.648;2023-02-12T15:37:21;10.70;94.80
15386;DHT22;7791;47.246;9.648;2023-02-12T15:39:57;10.30;95.00
15386;DHT22;7791;47.246;9.648;2023-02-12T15:42:30;10.00;95.80
15386;DHT22;7791;47.246;9.648;2023-02-12T15:45:17;9.70;96.20
15386;DHT22;7791;47.246;9.648;2023-02-12T15:47:46;9.30;96.70
15386;DHT22;7791;47.246;9.648;2023-02-12T15:50:19;8.90;97.60
15386;DHT22;7791;47.246;9.648;2023-02-12T15:52:53;8.40;98.70
15386;DHT22;7791;47.246;9.648;2023-02-12T15:55:24;8.00;98.90
15386;DHT22;7791;47.246;9.648;2023-02-12T15:57:51;7.80;98.90
15386;DHT22;7791;47.246;9.648;2023-02-12T16:00:27;7.50;99.10
15386;DHT22;7791;47.246;9.648;2023-02-12T16:02:54;7.20;99.90
15386;DHT22;7791;47.246;9.648;2023-02-12T16:05:21;6.90;99.90
15386;DHT22;7791;47.246;9.648;2023-02-12T16:07:47;6.80;99.90
15386;DHT22;7791;47.246;9.648;2023-02-12T16:10:15;6.50;99.90
15386;DHT22;7791;47.246;9.648;2023-02-12T16:12:46;6.30;99.90
15386;DHT22;7791;47.246;9.648;2023-02-12T16:15:25;6.30;99.90
15386;DHT22;7791;47.246;9.648;2023-02-12T16:17:51;6.10;99.90
15386;DHT22;7791;47.246;9.648;2023-02-12T16:20:24;5.90;99.90
15386;DHT22;7791;47.246;9.648;2023-02-12T16:22:54;5.70;99.90
15386;DHT22;7791;47.246;9.648;2023-02-12T16:25:31;5.50;99.90
15386;DHT22;7791;47.246;9.648;2023-02-12T16:28:03;5.20;99.90
15386;DHT22;7791;47.246;9.648;2023-02-12T16:30:42;5.00;99.90
15386;DHT22;7791;47.246;9.648;2023-02-12T16:33:31;4.70;99.90
15386;DHT22;7791;47.246;9.648;2023-02-12T16:36:13;4.50;99.90
15386;DHT22;7791;47.246;9.648;2023-02-12T16:38:43;4.30;99.90
15386;DHT22;7791;47.246;9.648;2023-02-12T16:41:25;4.10;99.90
15386;DHT22;7791;47.246;9.648;2023-02-12T16:44:24;3.90;99.90
15386;DHT22;7791;47.246;9.648;2023-02-12T16:46:53;3.60;99.90
15386;DHT22;7791;47.246;9.648;2023-02-12T16:49:23;3.50;99.90
15386;DHT22;7791;47.246;9.648;2023-02-12T16:51:50;3.30;99.90
15386;DHT22;7791;47.246;9.648;2023-02-12T16:54:27;3.10;99.90
15386;DHT22;7791;47.246;9.648;2023-02-12T16:56:58;3.00;99.90
15386;DHT22;7791;47.246;9.648;2023-02-12T16:59:29;2.90;99.90
15386;DHT22;7791;47.246;9.648;2023-02-12T17:02:08;2.80;99.90
15386;DHT22;7791;47.246;9.648;2023-02-12T17:04:43;2.70;99.90
15386;DHT22;7791;47.246;9.648;2023-02-12T17:07:28;2.50;99.90
15386;DHT22;7791;47.246;9.648;2023-02-12T17:09:57;2.30;99.90
15386;DHT22;7791;47.246;9.648;2023-02-12T17:12:25;2.20;99.90
15386;DHT22;7791;47.246;9.648;2023-02-12T17:14:56;2.10;99.90
15386;DHT22;7791;47.246;9.648;2023-02-12T17:17:24;2.10;99.90
15386;DHT22;7791;47.246;9.648;2023-02-12T17:19:50;2.00;99.90
15386;DHT22;7791;47.246;9.648;2023-02-12T17:22:23;2.00;99.90
15386;DHT22;7791;47.246;9.648;2023-02-12T17:24:49;1.80;99.90
15386;DHT22;7791;47.246;9.648;2023-02-12T17:27:16;1.80;99.90
15386;DHT22;7791;47.246;9.648;2023-02-12T17:29:43;1.80;99.90
15386;DHT22;7791;47.246;9.648;2023-02-12T17:32:11;1.80;99.90
15386;DHT22;7791;47.246;9.648;2023-02-12T17:34:37;1.70;99.90
15386;DHT22;7791;47.246;9.648;2023-02-12T17:37:04;1.60;99.90
15386;DHT22;7791;47.246;9.648;2023-02-12T17:39:30;1.60;99.90
15386;DHT22;7791;47.246;9.648;2023-02-12T17:42:05;1.60;99.90
15386;DHT22;7791;47.246;9.648;2023-02-12T17:44:31;1.60;99.90
15386;DHT22;7791;47.246;9.648;2023-02-12T17:46:58;1.60;99.90
15386;DHT22;7791;47.246;9.648;2023-02-12T17:49:25;1.60;99.90
15386;DHT22;7791;47.246;9.648;2023-02-12T17:51:51;1.50;99.90
15386;DHT22;7791;47.246;9.648;2023-02-12T17:54:17;1.40;99.90
15386;DHT22;7791;47.246;9.648;2023-02-12T17:56:47;1.30;99.90
15386;DHT22;7791;47.246;9.648;2023-02-12T17:59:13;1.10;99.90
15386;DHT22;7791;47.246;9.648;2023-02-12T18:01:40;1.00;99.90
15386;DHT22;7791;47.246;9.648;2023-02-12T18:04:06;1.00;99.90
15386;DHT22;7791;47.246;9.648;2023-02-12T18:06:33;0.90;99.90
15386;DHT22;7791;47.246;9.648;2023-02-12T18:08:59;0.90;99.90
15386;DHT22;7791;47.246;9.648;2023-02-12T18:11:26;0.90;99.90
15386;DHT22;7791;47.246;9.648;2023-02-12T18:13:53;0.90;99.90
15386;DHT22;7791;47.246;9.648;2023-02-12T18:16:22;1.00;99.90
15386;DHT22;7791;47.246;9.648;2023-02-12T18:18:54;0.90;99.90
15386;DHT22;7791;47.246;9.648;2023-02-12T18:21:20;0.90;99.90
15386;DHT22;7791;47.246;9.648;2023-02-12T18:23:48;0.80;99.90
15386;DHT22;7791;47.246;9.648;2023-02-12T18:26:16;0.90;99.90
15386;DHT22;7791;47.246;9.648;2023-02-12T18:28:43;0.90;99.90
15386;DHT22;7791;47.246;9.648;2023-02-12T18:31:10;0.80;99.90
15386;DHT22;7791;47.246;9.648;2023-02-12T18:33:36;0.80;99.90
15386;DHT22;7791;47.246;9.648;2023-02-12T18:36:05;0.80;99.90
15386;DHT22;7791;47.246;9.648;2023-02-12T18:38:32;0.70;99.90
15386;DHT22;7791;47.246;9.648;2023-02-12T18:41:04;0.50;99.90
15386;DHT22;7791;47.246;9.648;2023-02-12T18:43:33;0.40;99.90
15386;DHT22;7791;47.246;9.648;2023-02-12T18:46:04;0.30;99.90
15386;DHT22;7791;47.246;9.648;2023-02-12T18:48:30;0.20;99.90
15386;DHT22;7791;47.246;9.648;2023-02-12T18:51:00;0.10;99.90
15386;DHT22;7791;47.246;9.648;2023-02-12T18:53:29;0.00;99.90
15386;DHT22;7791;47.246;9.648;2023-02-12T18:55:57;-0.10;99.90
15386;DHT22;7791;47.246;9.648;2023-02-12T18:58:25;-0.10;99.90
15386;DHT22;7791;47.246;9.648;2023-02-12T19:00:56;-0.10;99.90
15386;DHT22;7791;47.246;9.648;2023-02-12T19:03:22;-0.10;99.90
15386;DHT22;7791;47.246;9.648;2023-02-12T19:05:49;-0.10;99.90
15386;DHT22;7791;47.246;9.648;2023-02-12T19:08:15;-0.20;99.90
15386;DHT22;7791;47.246;9.648;2023-02-12T19:10:42;-0.20;99.90
15386;DHT22;7791;47.246;9.648;2023-02-12T19:13:08;-0.30;99.90
15386;DHT22;7791;47.246;9.648;2023-02-12T19:15:38;-0.40;99.90
15386;DHT22;7791;47.246;9.648;2023-02-12T19:18:05;-0.40;99.90
15386;DHT22;7791;47.246;9.648;2023-02-12T19:20:32;-0.40;99.90
15386;DHT22;7791;47.246;9.648;2023-02-12T19:22:57;-0.30;99.90
15386;DHT22;7791;47.246;9.648;2023-02-12T19:25:24;-0.30;99.90
15386;DHT22;7791;47.246;9.648;2023-02-12T19:27:55;-0.30;99.90
15386;DHT22;7791;47.246;9.648;2023-02-12T19:30:24;-0.30;99.90
15386;DHT22;7791;47.246;9.648;2023-02-12T19:32:53;-0.30;99.90
15386;DHT22;7791;47.246;9.648;2023-02-12T19:35:20;-0.40;99.90
15386;DHT22;7791;47.246;9.648;2023-02-12T19:37:47;-0.30;99.90
15386;DHT22;7791;47.246;9.648;2023-02-12T19:40:14;-0.40;99.90
15386;DHT22;7791;47.246;9.648;2023-02-12T19:42:55;-0.50;99.90
15386;DHT22;7791;47.246;9.648;2023-02-12T19:45:24;-0.60;99.90
15386;DHT22;7791;47.246;9.648;2023-02-12T19:47:50;-0.70;99.90
15386;DHT22;7791;47.246;9.648;2023-02-12T19:50:20;-0.70;99.90
15386;DHT22;7791;47.246;9.648;2023-02-12T19:52:46;-0.70;99.90
15386;DHT22;7791;47.246;9.648;2023-02-12T19:55:12;-0.80;99.90